This is the latest recevied weather packets stored in our database for station/object IW4DZV-13. If no packets are shown the sender has not sent any weather packets the latest 1 day(s).
| Time | Temp. | Humidity | Pressure | Rain* | Wind** | Luminosity | Snow |
|---|---|---|---|---|---|---|---|
| 1778087747 | 17.78° C | 76% | 1007.7 hPa | 12.19 mm | - | 49 W/m² | - |
| 1778085046 | 18.33° C | 76% | 1007.6 hPa | 12.19 mm | - | 105 W/m² | - |
| 1778075137 | 18.33° C | 80% | 1008.2 hPa | 11.43 mm | - | 260 W/m² | - |
| 1778072435 | 17.22° C | 86% | 1008.5 hPa | 11.18 mm | - | 218 W/m² | - |
| 1778068835 | 19.44° C | 75% | 1008.4 hPa | 10.41 mm | - | 83 W/m² | - |
| 1778066129 | 19.44° C | 76% | 1008.8 hPa | 10.41 mm | - | 253 W/m² | - |
| 1778063417 | 17.78° C | 88% | 1009.4 hPa | 10.41 mm | - | 578 W/m² | - |
| 1778056260 | 14.44° C | 91% | 1009.9 hPa | 9.65 mm | - | 153 W/m² | - |
| 1778055363 | 14.44° C | 92% | 1009.5 hPa | 9.65 mm | - | 169 W/m² | - |
| 1778054466 | 14.44° C | 92% | 1009.3 hPa | 9.4 mm | - | 128 W/m² | - |
| 1778052654 | 13.89° C | 92% | 1009.6 hPa | 9.4 mm | - | 127 W/m² | - |
| 1778051762 | 13.89° C | 92% | 1009.5 hPa | 9.14 mm | - | 128 W/m² | - |
| 1778050853 | 13.89° C | 92% | 1009.6 hPa | 9.14 mm | - | 74 W/m² | - |
| 1778049952 | 13.89° C | 92% | 1009.8 hPa | 9.14 mm | - | 121 W/m² | - |
| 1778048150 | 13.89° C | 93% | 1009.8 hPa | 8.38 mm | - | 90 W/m² | - |
| 1778045443 | 13.33° C | 93% | 1010.2 hPa | 8.13 mm | - | 33 W/m² | - |
| 1778044560 | 13.89° C | 93% | 1009.6 hPa | 7.11 mm | - | 28 W/m² | - |
| 1778042739 | 13.89° C | 93% | 1010.5 hPa | 5.33 mm | - | 0 W/m² | - |
| 1778041839 | 13.89° C | 93% | 1010 hPa | 4.32 mm | - | 0 W/m² | - |
| 1778040038 | 13.33° C | 93% | 1009.9 hPa | 3.81 mm | - | 0 W/m² | - |
| 1778039150 | 13.33° C | 93% | 1009.9 hPa | 3.81 mm | - | 0 W/m² | - |
| 1778037335 | 13.33° C | 92% | 1009.9 hPa | 3.56 mm | - | 0 W/m² | - |
| 1778035554 | 13.33° C | 92% | 1010.3 hPa | 3.3 mm | - | 0 W/m² | - |
| 1778034630 | 13.33° C | 92% | 1010.6 hPa | 3.3 mm | - | 0 W/m² | - |
| 1778033729 | 13.33° C | 92% | 1010.7 hPa | 2.54 mm | - | 0 W/m² | - |
* Rain since midnight (hover to see other rain measurements)
** Current wind speed in m/s (hover to see current wind gust speed)